BIENTÔT MET'MAP
version 2.0 !

Prévue avant fin octobre,
la nouvelle version sera
plus belle, plus complète
et hébergée sur un serveur
3 fois plus puissant...
et toujours gratuite !


Pas compatible ?
Essayez la version Mobile !

SE CONNECTER : | S'inscrire | Disclaimer | Découvrir Orbifly |
Code OACI :

TAF - LIPY Ancona Falconara - 02 Jun 2020 05:09 UTC
Data Sources :     NOAA   


- Altitude de l'aérodrome : 49 ft
- Code IATA : AOI
- Pas de NOTAMs connus.


LIPY - Ancona Falconara

Dernier METAR connu : 2015/08/11 07:50 LIPY 110750Z 18004KT 130V290 9999 FEW010TCU SCT030 25/19 Q1013 RETS
TAF TAF LIPY
Valide du 02 à 00h jusqu'au 03 à 00h UTC


012300Z 0200/0224 VRB05KT 9999 FEW030
BECMG 0208/0210 06012KT
BECMG 0216/0218 VRB05KT

Source NOAA


MET'MAP, la Météo Aéronautique d'un coup d'oeil ! - Copyright ORBIFLY Décembre 2007

Développement & Programmation : Alexandra Zaïnal
Co-Développement : Marc-Olivier Méhu
Soutien technique & logistique : Manuel Goepfert
Conception & Financement : Baudouin d'Aumeries